createdAt,value
2022-10-18T00:01:25.262Z,16.21
2022-10-18T00:03:53.161Z,15.98
2022-10-18T00:06:20.976Z,16.05
2022-10-18T00:08:49.748Z,16.87
2022-10-18T00:11:19.415Z,15.76
2022-10-18T00:13:47.361Z,16.73
2022-10-18T00:16:17.565Z,16.85
2022-10-18T00:18:47.935Z,15.98
2022-10-18T00:21:17.850Z,16.86
2022-10-18T00:23:48.527Z,16.76
2022-10-18T00:26:18.117Z,16.30
2022-10-18T00:28:51.078Z,14.63
2022-10-18T00:31:21.180Z,16.85
2022-10-18T00:33:51.450Z,14.77
2022-10-18T00:36:20.053Z,14.70
2022-10-18T00:38:48.950Z,15.59
2022-10-18T00:41:20.499Z,16.20
2022-10-18T00:43:59.763Z,16.80
2022-10-18T00:46:29.657Z,16.79
2022-10-18T00:48:59.514Z,16.79
2022-10-18T00:51:31.912Z,16.82
2022-10-18T00:54:00.052Z,15.85
2022-10-18T00:56:28.064Z,15.62
2022-10-18T00:58:58.476Z,16.39
2022-10-18T01:01:28.377Z,16.77
2022-10-18T01:03:57.395Z,16.52
2022-10-18T01:06:28.130Z,16.74
2022-10-18T01:09:08.102Z,16.71
2022-10-18T01:11:56.920Z,14.73
2022-10-18T01:14:39.511Z,16.69
2022-10-18T01:17:13.149Z,16.66
2022-10-18T01:20:22.526Z,16.43
2022-10-18T01:22:57.720Z,16.07
2022-10-18T01:25:37.629Z,15.53
2022-10-18T01:28:21.065Z,16.27
2022-10-18T01:30:54.929Z,15.76
2022-10-18T01:33:30.047Z,16.68
2022-10-18T01:36:02.767Z,16.71
2022-10-18T01:38:33.333Z,14.37
2022-10-18T01:41:04.330Z,16.39
2022-10-18T01:43:33.883Z,14.40
2022-10-18T01:46:05.704Z,15.10
2022-10-18T01:48:33.966Z,14.58
2022-10-18T01:51:01.786Z,16.68
2022-10-18T01:53:32.171Z,16.76
2022-10-18T01:56:21.739Z,16.77
2022-10-18T01:59:03.639Z,15.69
2022-10-18T02:01:42.252Z,16.08
2022-10-18T02:04:21.411Z,16.66
2022-10-18T02:06:55.804Z,16.35
2022-10-18T02:09:34.326Z,16.70
2022-10-18T02:12:04.463Z,16.44
2022-10-18T02:14:34.046Z,16.56
2022-10-18T02:17:07.136Z,14.61
2022-10-18T02:19:39.631Z,16.67
2022-10-18T02:22:10.763Z,15.72
2022-10-18T02:24:42.245Z,14.94
2022-10-18T02:27:10.647Z,16.46
2022-10-18T02:29:39.354Z,16.35
2022-10-18T02:32:14.269Z,16.74
2022-10-18T02:34:46.182Z,16.50
2022-10-18T02:37:15.622Z,14.54
2022-10-18T02:39:47.242Z,15.89
2022-10-18T02:42:16.569Z,16.19
2022-10-18T02:44:44.426Z,14.44
2022-10-18T02:47:13.941Z,16.76
2022-10-18T02:49:44.166Z,16.15
2022-10-18T02:52:11.981Z,16.21
2022-10-18T02:54:40.086Z,16.14
2022-10-18T02:57:09.535Z,16.76
2022-10-18T02:59:37.333Z,15.46
2022-10-18T03:02:05.371Z,15.71
2022-10-18T03:04:34.665Z,15.56
2022-10-18T03:07:02.501Z,15.74
2022-10-18T03:09:30.380Z,16.81
2022-10-18T03:11:58.476Z,15.77
2022-10-18T03:14:26.377Z,16.88
2022-10-18T03:16:54.498Z,16.89
2022-10-18T03:19:22.358Z,16.71
2022-10-18T03:21:51.565Z,16.61
2022-10-18T03:24:19.472Z,15.95
2022-10-18T03:26:47.564Z,16.23
2022-10-18T03:29:15.421Z,16.90
2022-10-18T03:31:43.502Z,16.62
2022-10-18T03:34:11.320Z,16.90
2022-10-18T03:36:41.329Z,15.94
2022-10-18T03:39:11.980Z,16.82
2022-10-18T03:41:40.065Z,16.93
2022-10-18T03:44:08.005Z,16.89
2022-10-18T03:46:35.956Z,16.85
2022-10-18T03:49:03.878Z,16.86
2022-10-18T03:51:31.816Z,14.67
2022-10-18T03:53:59.686Z,14.89
2022-10-18T03:56:28.965Z,16.35
2022-10-18T03:58:57.245Z,16.81
2022-10-18T04:01:25.304Z,16.92
2022-10-18T04:03:53.129Z,16.94
2022-10-18T04:06:21.121Z,15.96
2022-10-18T04:08:48.946Z,16.95
2022-10-18T04:11:16.720Z,16.75
2022-10-18T04:13:45.898Z,16.95
2022-10-18T04:16:13.738Z,16.94
2022-10-18T04:18:41.570Z,15.54
2022-10-18T04:21:09.360Z,16.85
2022-10-18T04:23:38.762Z,16.61
2022-10-18T04:26:07.329Z,16.83
2022-10-18T04:28:39.818Z,16.83
2022-10-18T04:31:09.686Z,15.29
2022-10-18T04:33:37.889Z,16.87
2022-10-18T04:36:06.218Z,15.77
2022-10-18T04:38:34.079Z,16.76
2022-10-18T04:41:01.900Z,16.88
2022-10-18T04:43:30.113Z,16.28
2022-10-18T04:45:58.048Z,16.86
2022-10-18T04:48:27.760Z,16.54
2022-10-18T04:50:55.712Z,16.52
2022-10-18T04:53:23.605Z,16.83
2022-10-18T04:55:54.911Z,16.24
2022-10-18T04:58:23.473Z,14.18
2022-10-18T05:00:51.793Z,14.98
2022-10-18T05:03:19.627Z,14.61
2022-10-18T05:06:03.955Z,16.74
2022-10-18T05:08:33.882Z,16.10
2022-10-18T05:11:02.746Z,16.70
2022-10-18T05:13:31.495Z,16.70
2022-10-18T05:16:00.875Z,16.26
2022-10-18T05:18:29.070Z,16.42
2022-10-18T05:20:58.721Z,16.69
2022-10-18T05:23:26.628Z,16.69
2022-10-18T05:25:55.237Z,14.91
2022-10-18T05:28:41.111Z,16.69
2022-10-18T05:31:11.608Z,15.71
2022-10-18T05:33:40.153Z,13.91
2022-10-18T05:36:10.434Z,16.68
2022-10-18T05:38:41.843Z,16.66
2022-10-18T05:41:09.893Z,16.65
2022-10-18T05:43:37.677Z,16.64
2022-10-18T05:46:11.822Z,16.64
2022-10-18T05:48:42.801Z,16.64
2022-10-18T05:51:12.305Z,16.35
2022-10-18T05:53:40.330Z,16.24
2022-10-18T05:56:11.665Z,16.64
2022-10-18T05:58:39.881Z,16.63
2022-10-18T06:01:09.345Z,16.63
2022-10-18T06:03:37.610Z,15.23
2022-10-18T06:06:07.591Z,16.60
2022-10-18T06:08:38.064Z,16.27
2022-10-18T06:11:08.033Z,15.32
2022-10-18T06:13:35.993Z,14.51
2022-10-18T06:16:03.767Z,16.58
2022-10-18T06:18:31.761Z,16.57
2022-10-18T06:21:00.063Z,15.10
2022-10-18T06:23:28.909Z,15.69
2022-10-18T06:26:01.368Z,15.62
2022-10-18T06:28:29.773Z,16.60
2022-10-18T06:30:58.206Z,15.60
2022-10-18T06:33:26.128Z,15.59
2022-10-18T06:35:59.109Z,15.17
2022-10-18T06:38:27.765Z,16.58
2022-10-18T06:40:56.787Z,16.42
2022-10-18T06:43:26.393Z,16.19
2022-10-18T06:45:55.283Z,14.97
2022-10-18T06:48:23.873Z,16.42
2022-10-18T06:50:53.276Z,16.52
2022-10-18T06:53:21.097Z,15.26
2022-10-18T06:55:48.923Z,16.40
2022-10-18T06:58:16.966Z,15.92
2022-10-18T07:00:46.977Z,16.47
2022-10-18T07:03:14.961Z,16.52
2022-10-18T07:05:42.990Z,16.55
2022-10-18T07:08:10.936Z,15.07
2022-10-18T07:10:38.795Z,16.63
2022-10-18T07:13:31.396Z,15.56
2022-10-18T07:16:03.538Z,16.09
2022-10-18T07:18:31.763Z,16.70
2022-10-18T07:21:02.437Z,14.74
2022-10-18T07:23:30.482Z,16.83
2022-10-18T07:25:58.380Z,16.45
2022-10-18T07:28:26.318Z,16.86
2022-10-18T07:30:54.692Z,17.01
2022-10-18T07:33:25.884Z,16.81
2022-10-18T07:35:53.689Z,17.18
2022-10-18T07:38:22.699Z,16.71
2022-10-18T07:41:02.377Z,17.38
2022-10-18T07:43:31.014Z,17.31
2022-10-18T07:46:02.524Z,17.81
2022-10-18T07:48:32.334Z,16.84
2022-10-18T07:51:01.107Z,15.85
2022-10-18T07:53:29.830Z,16.44
2022-10-18T07:56:03.493Z,17.51
2022-10-18T07:58:34.689Z,17.80
2022-10-18T08:01:04.255Z,18.44
2022-10-18T08:03:34.199Z,18.53
2022-10-18T08:06:02.408Z,17.42
2022-10-18T08:08:31.217Z,18.28
2022-10-18T08:11:03.400Z,17.79
2022-10-18T08:13:31.689Z,18.70
2022-10-18T08:16:03.785Z,18.04
2022-10-18T08:18:33.249Z,18.59
2022-10-18T08:21:01.293Z,19.29
2022-10-18T08:23:29.343Z,19.85
2022-10-18T08:25:57.312Z,19.96
2022-10-18T08:28:25.347Z,20.29
2022-10-18T08:30:53.498Z,20.53
2022-10-18T08:33:21.338Z,21.61
2022-10-18T08:35:57.473Z,21.04
2022-10-18T08:38:25.773Z,22.66
2022-10-18T08:40:53.784Z,23.06
2022-10-18T08:43:32.619Z,22.98
2022-10-18T08:46:00.704Z,21.87
2022-10-18T08:48:36.387Z,22.67
2022-10-18T08:51:12.692Z,21.18
2022-10-18T08:53:52.412Z,21.83
2022-10-18T08:56:24.308Z,21.86
2022-10-18T08:58:52.178Z,21.35
2022-10-18T09:01:33.643Z,20.92
2022-10-18T09:04:24.252Z,21.61
2022-10-18T09:07:06.381Z,20.56
2022-10-18T09:09:43.137Z,22.02
2022-10-18T09:12:32.215Z,22.18
2022-10-18T09:15:30.756Z,22.15
2022-10-18T09:18:10.331Z,21.93
2022-10-18T09:20:50.061Z,21.58
2022-10-18T09:23:22.945Z,20.35
2022-10-18T09:25:56.707Z,20.82
2022-10-18T09:28:37.359Z,20.42
2022-10-18T09:31:14.358Z,19.62
2022-10-18T09:33:53.334Z,20.02
2022-10-18T09:36:24.495Z,20.03
2022-10-18T09:39:00.327Z,19.79
2022-10-18T09:41:33.473Z,20.00
2022-10-18T09:44:06.736Z,19.85
2022-10-18T09:46:39.898Z,19.90
2022-10-18T09:49:16.339Z,19.08
2022-10-18T09:51:46.073Z,19.87
2022-10-18T09:54:21.645Z,20.14
2022-10-18T09:56:51.936Z,20.29
2022-10-18T09:59:38.673Z,20.48
2022-10-18T10:02:07.557Z,20.73
2022-10-18T10:04:35.745Z,19.77
2022-10-18T10:07:08.035Z,20.79
2022-10-18T10:09:45.862Z,19.46
2022-10-18T10:12:28.445Z,20.53
2022-10-18T10:14:56.766Z,20.44
2022-10-18T10:17:27.579Z,18.43
2022-10-18T10:19:59.884Z,20.12
2022-10-18T10:22:30.483Z,19.98
2022-10-18T10:25:00.863Z,19.56
2022-10-18T10:27:34.985Z,19.73
2022-10-18T10:30:07.062Z,20.21
2022-10-18T10:32:47.810Z,19.77
2022-10-18T10:35:53.574Z,20.05
2022-10-18T10:38:24.960Z,18.65
2022-10-18T10:40:55.116Z,20.03
2022-10-18T10:43:42.539Z,19.96
2022-10-18T10:46:13.687Z,19.81
2022-10-18T10:48:56.289Z,19.90
2022-10-18T10:51:34.641Z,19.28
2022-10-18T10:54:04.706Z,19.92
2022-10-18T10:56:37.056Z,20.15
2022-10-18T10:59:11.656Z,19.80
2022-10-18T11:01:39.511Z,19.49
2022-10-18T11:04:26.436Z,19.75
2022-10-18T11:07:11.082Z,19.68
2022-10-18T11:09:49.259Z,18.92
2022-10-18T11:12:27.661Z,18.49
2022-10-18T11:15:18.089Z,18.65
2022-10-18T11:17:57.423Z,17.78
2022-10-18T11:20:29.526Z,19.57
2022-10-18T11:23:01.798Z,19.54
2022-10-18T11:25:44.479Z,19.55
2022-10-18T11:28:23.295Z,19.39
2022-10-18T11:31:03.563Z,19.25
2022-10-18T11:34:07.599Z,19.39
2022-10-18T11:36:40.373Z,19.71
2022-10-18T11:39:20.525Z,19.68
2022-10-18T11:41:56.571Z,19.32
2022-10-18T11:44:35.667Z,19.23
2022-10-18T11:47:11.151Z,19.70
2022-10-18T11:49:55.101Z,19.16
2022-10-18T11:52:34.449Z,18.11
2022-10-18T11:55:15.615Z,19.13
2022-10-18T11:57:55.838Z,19.68
2022-10-18T12:00:34.394Z,19.73
2022-10-18T12:03:26.310Z,19.81
2022-10-18T12:05:56.708Z,20.10
2022-10-18T12:08:53.545Z,20.52
2022-10-18T12:11:27.082Z,20.90
2022-10-18T12:13:58.870Z,19.99
2022-10-18T12:16:49.858Z,20.33
2022-10-18T12:19:25.410Z,20.54
2022-10-18T12:21:57.521Z,20.28
2022-10-18T12:24:29.175Z,20.38
2022-10-18T12:27:00.855Z,19.10
2022-10-18T12:29:32.557Z,20.93
2022-10-18T12:32:07.344Z,21.25
2022-10-18T12:34:41.773Z,22.55
2022-10-18T12:37:43.990Z,25.04
2022-10-18T12:40:18.823Z,26.56
2022-10-18T12:42:51.379Z,26.17
2022-10-18T12:45:30.094Z,25.96
2022-10-18T12:48:02.888Z,24.07
2022-10-18T12:50:35.107Z,25.01
2022-10-18T12:53:22.793Z,23.85
2022-10-18T12:55:53.615Z,24.41
2022-10-18T12:58:28.721Z,23.87
2022-10-18T13:01:08.035Z,21.90
2022-10-18T13:03:59.502Z,23.37
2022-10-18T13:07:05.935Z,23.19
2022-10-18T13:09:36.454Z,23.22
2022-10-18T13:12:49.086Z,23.20
2022-10-18T13:15:39.612Z,22.65
2022-10-18T13:18:17.107Z,20.65
2022-10-18T13:20:52.196Z,21.99
2022-10-18T13:23:39.137Z,22.12
2022-10-18T13:26:23.105Z,22.12
2022-10-18T13:28:57.579Z,22.15
2022-10-18T13:31:36.317Z,22.05
2022-10-18T13:34:28.482Z,22.19
2022-10-18T13:37:01.267Z,21.97
2022-10-18T13:39:29.816Z,21.70
2022-10-18T13:42:31.755Z,21.40
2022-10-18T13:45:36.147Z,21.17
2022-10-18T13:48:48.094Z,21.05
2022-10-18T13:51:39.099Z,20.92
2022-10-18T13:54:26.370Z,20.83
2022-10-18T13:57:09.634Z,20.56
2022-10-18T13:59:55.473Z,20.69
2022-10-18T14:02:51.546Z,18.96
2022-10-18T14:05:41.293Z,20.23
2022-10-18T14:08:16.251Z,20.53
2022-10-18T14:11:03.270Z,20.48
2022-10-18T14:13:40.606Z,19.53
2022-10-18T14:16:24.697Z,17.66
2022-10-18T14:18:56.448Z,18.62
2022-10-18T14:21:31.549Z,20.20
2022-10-18T14:23:59.991Z,19.88
2022-10-18T14:26:29.356Z,18.61
2022-10-18T14:29:05.382Z,19.10
2022-10-18T14:31:35.955Z,20.33
2022-10-18T14:34:04.330Z,18.56
2022-10-18T14:36:40.756Z,21.21
2022-10-18T14:39:19.633Z,20.34
2022-10-18T14:41:50.967Z,21.20
2022-10-18T14:44:21.410Z,21.69
2022-10-18T14:46:52.453Z,21.46
2022-10-18T14:49:21.556Z,21.19
2022-10-18T14:51:52.236Z,20.93
2022-10-18T14:54:24.004Z,18.94
2022-10-18T14:56:54.644Z,20.22
2022-10-18T14:59:26.069Z,20.32
2022-10-18T15:01:57.710Z,18.11
2022-10-18T15:04:32.570Z,19.87
2022-10-18T15:07:03.008Z,19.95
2022-10-18T15:09:33.257Z,19.88
2022-10-18T15:12:03.124Z,18.62
2022-10-18T15:14:31.794Z,19.66
2022-10-18T15:17:05.584Z,19.66
2022-10-18T15:19:35.505Z,19.46
2022-10-18T15:22:31.187Z,19.35
2022-10-18T15:25:15.247Z,19.31
2022-10-18T15:27:46.277Z,17.74
2022-10-18T15:30:20.620Z,19.15
2022-10-18T15:32:52.118Z,18.70
2022-10-18T15:35:26.176Z,17.94
2022-10-18T15:37:55.711Z,18.87
2022-10-18T15:40:33.744Z,18.79
2022-10-18T15:43:03.944Z,18.39
2022-10-18T15:45:35.428Z,18.08
2022-10-18T15:48:21.681Z,18.56
2022-10-18T15:50:51.831Z,18.53
2022-10-18T15:53:33.778Z,18.06
2022-10-18T15:56:03.637Z,18.14
2022-10-18T15:58:40.184Z,18.52
2022-10-18T16:01:16.329Z,17.89
2022-10-18T16:03:47.374Z,18.04
2022-10-18T16:06:18.303Z,17.32
2022-10-18T16:08:48.552Z,18.19
2022-10-18T16:11:18.623Z,18.04
2022-10-18T16:13:46.851Z,17.92
2022-10-18T16:16:18.128Z,17.81
2022-10-18T16:18:47.362Z,17.67
2022-10-18T16:21:18.792Z,15.95
2022-10-18T16:23:46.697Z,17.46
2022-10-18T16:26:14.596Z,16.36
2022-10-18T16:28:42.967Z,17.25
2022-10-18T16:33:43.440Z,16.07
2022-10-18T16:36:15.701Z,15.97
2022-10-18T16:38:45.087Z,16.81
2022-10-18T16:41:15.777Z,16.61
2022-10-18T16:43:44.597Z,16.37
2022-10-18T16:46:16.601Z,15.50
2022-10-18T16:48:45.280Z,16.56
2022-10-18T16:51:14.610Z,16.16
2022-10-18T16:53:42.817Z,15.98
2022-10-18T16:56:15.583Z,16.28
2022-10-18T16:58:43.718Z,16.19
2022-10-18T17:01:12.956Z,14.95
2022-10-18T17:03:41.526Z,14.82
2022-10-18T17:06:17.586Z,15.61
2022-10-18T17:08:45.943Z,14.95
2022-10-18T17:11:15.821Z,15.78
2022-10-18T17:13:43.988Z,15.73
2022-10-18T17:16:24.074Z,15.65
2022-10-18T17:18:52.368Z,15.56
2022-10-18T17:21:21.902Z,15.48
2022-10-18T17:23:50.068Z,15.40
2022-10-18T17:26:28.798Z,15.34
2022-10-18T17:28:59.520Z,15.27
2022-10-18T17:31:28.122Z,12.66
2022-10-18T17:33:55.976Z,14.46
2022-10-18T17:36:25.272Z,13.55
2022-10-18T17:38:53.333Z,14.96
2022-10-18T17:41:21.784Z,14.61
2022-10-18T17:43:49.954Z,14.85
2022-10-18T17:46:18.139Z,14.77
2022-10-18T17:48:47.484Z,14.71
2022-10-18T17:51:17.529Z,14.57
2022-10-18T17:53:47.288Z,13.96
2022-10-18T17:56:16.475Z,14.50
2022-10-18T17:58:45.265Z,14.42
2022-10-18T18:01:15.258Z,11.61
2022-10-18T18:03:43.775Z,14.31
2022-10-18T18:06:17.696Z,14.29
2022-10-18T18:08:47.975Z,14.22
2022-10-18T18:11:16.804Z,11.83
2022-10-18T18:13:44.703Z,14.10
2022-10-18T18:16:15.045Z,13.42
2022-10-18T18:18:43.219Z,12.38
2022-10-18T18:21:11.235Z,12.61
2022-10-18T18:23:39.797Z,13.87
2022-10-18T18:26:10.626Z,13.60
2022-10-18T18:28:39.275Z,12.88
2022-10-18T18:31:08.255Z,13.04
2022-10-18T18:33:36.387Z,13.57
2022-10-18T18:36:06.782Z,12.34
2022-10-18T18:38:36.847Z,13.43
2022-10-18T18:41:11.160Z,13.37
2022-10-18T18:43:41.273Z,10.67
2022-10-18T18:46:10.416Z,11.94
2022-10-18T18:48:38.641Z,13.27
2022-10-18T18:51:09.283Z,13.24
2022-10-18T18:53:38.422Z,13.17
2022-10-18T18:56:09.107Z,9.84
2022-10-18T18:58:40.170Z,11.60
2022-10-18T19:01:09.746Z,12.99
2022-10-18T19:03:40.236Z,10.06
2022-10-18T19:06:10.978Z,11.06
2022-10-18T19:08:40.850Z,12.80
2022-10-18T19:11:10.008Z,12.74
2022-10-18T19:13:39.200Z,10.31
2022-10-18T19:16:21.636Z,11.57
2022-10-18T19:18:58.902Z,12.53
2022-10-18T19:21:29.280Z,10.73
2022-10-18T19:23:58.028Z,10.63
2022-10-18T19:26:37.918Z,11.13
2022-10-18T19:29:09.829Z,9.95
2022-10-18T19:31:39.230Z,12.26
2022-10-18T19:34:12.236Z,10.95
2022-10-18T19:36:41.616Z,10.08
2022-10-18T19:39:14.774Z,11.83
2022-10-18T19:41:42.934Z,11.24
2022-10-18T19:44:12.701Z,11.75
2022-10-18T19:46:41.120Z,11.40
2022-10-18T19:49:09.469Z,11.35
2022-10-18T19:51:38.578Z,9.27
2022-10-18T19:54:07.062Z,11.93
2022-10-18T19:56:35.849Z,11.29
2022-10-18T19:59:03.854Z,10.33
2022-10-18T20:01:33.318Z,9.75
2022-10-18T20:04:03.785Z,8.34
2022-10-18T20:06:31.972Z,8.89
2022-10-18T20:09:00.357Z,11.73
2022-10-18T20:11:30.212Z,11.70
2022-10-18T20:13:59.629Z,9.49
2022-10-18T20:16:29.643Z,10.36
2022-10-18T20:19:01.145Z,8.92
2022-10-18T20:21:31.426Z,11.42
2022-10-18T20:24:00.658Z,11.51
2022-10-18T20:26:31.560Z,10.16
2022-10-18T20:29:00.191Z,8.78
2022-10-18T20:31:30.441Z,8.64
2022-10-18T20:34:01.704Z,7.06
2022-10-18T20:36:31.902Z,9.36
2022-10-18T20:39:01.197Z,10.15
2022-10-18T20:41:30.879Z,9.30
2022-10-18T20:44:01.160Z,11.35
2022-10-18T20:46:32.466Z,8.88
2022-10-18T20:49:02.162Z,8.52
2022-10-18T20:51:30.299Z,7.55
2022-10-18T20:53:58.641Z,9.49
2022-10-18T20:56:27.555Z,9.82
2022-10-18T20:58:57.760Z,9.89
2022-10-18T21:01:28.249Z,11.27
2022-10-18T21:03:59.297Z,8.57
2022-10-18T21:06:33.141Z,8.77
2022-10-18T21:09:03.298Z,8.15
2022-10-18T21:11:32.220Z,8.12
2022-10-18T21:14:02.692Z,8.39
2022-10-18T21:16:31.859Z,10.75
2022-10-18T21:19:03.498Z,7.56
2022-10-18T21:21:33.439Z,10.23
2022-10-18T21:24:05.339Z,8.82
2022-10-18T21:26:36.938Z,11.26
2022-10-18T21:29:06.572Z,11.26
2022-10-18T21:31:36.510Z,9.76
2022-10-18T21:34:06.470Z,10.08
2022-10-18T21:36:37.835Z,10.03
2022-10-18T21:39:08.005Z,8.36
2022-10-18T21:41:36.341Z,9.67
2022-10-18T21:44:08.319Z,7.74
2022-10-18T21:46:39.238Z,7.71
2022-10-18T21:49:08.178Z,9.31
2022-10-18T21:51:38.354Z,10.74
2022-10-18T21:54:08.573Z,10.79
2022-10-18T21:56:37.158Z,11.45
2022-10-18T21:59:05.392Z,8.54
2022-10-18T22:01:35.385Z,8.65
2022-10-18T22:04:06.522Z,11.49
2022-10-18T22:06:37.188Z,11.18
2022-10-18T22:09:08.311Z,8.93
2022-10-18T22:11:39.108Z,8.00
2022-10-18T22:14:07.184Z,7.99
2022-10-18T22:16:35.383Z,8.10
2022-10-18T22:19:06.387Z,10.38
2022-10-18T22:21:35.391Z,11.65
2022-10-18T22:24:07.805Z,11.68
2022-10-18T22:26:37.905Z,10.46
2022-10-18T22:29:07.785Z,11.65
2022-10-18T22:31:37.626Z,8.29
2022-10-18T22:34:07.830Z,11.56
2022-10-18T22:36:36.113Z,11.59
2022-10-18T22:39:06.507Z,11.63
2022-10-18T22:41:35.608Z,11.68
2022-10-18T22:44:04.253Z,11.74
2022-10-18T22:46:33.160Z,11.78
2022-10-18T22:49:01.116Z,11.36
2022-10-18T22:51:29.039Z,9.08
2022-10-18T22:53:57.037Z,11.85
2022-10-18T22:56:26.928Z,10.07
2022-10-18T22:58:54.885Z,11.29
2022-10-18T23:01:24.406Z,11.90
2022-10-18T23:03:56.070Z,10.22
2022-10-18T23:06:25.900Z,11.40
2022-10-18T23:08:55.578Z,9.37
2022-10-18T23:11:24.533Z,11.61
2022-10-18T23:13:54.168Z,10.05
2022-10-18T23:16:22.337Z,11.36
2022-10-18T23:18:52.030Z,10.72
2022-10-18T23:21:20.975Z,11.63
2022-10-18T23:23:48.931Z,10.06
2022-10-18T23:26:18.758Z,10.56
2022-10-18T23:28:48.407Z,11.82
2022-10-18T23:31:19.162Z,11.79
2022-10-18T23:33:48.347Z,11.78
2022-10-18T23:36:17.021Z,10.50
2022-10-18T23:38:44.982Z,11.17
2022-10-18T23:41:15.157Z,10.13
2022-10-18T23:43:43.777Z,10.71
2022-10-18T23:46:13.085Z,11.39
2022-10-18T23:48:42.611Z,11.60
2022-10-18T23:51:11.421Z,10.25
2022-10-18T23:53:39.642Z,11.38
2022-10-18T23:56:10.029Z,9.77
2022-10-18T23:58:38.564Z,9.85
